Terminal Aerodrome Forecast
Issued by NWS

Home | Current Version | Previous Version | Text Only | Print | Product List | Glossary On
Versions: 1 2 3 4 5 6 7 8 9 10 11 12 13 14 15 16 17 18 19 20 21 22 23 24 25 26 27 28 29 30 31 32 33 34 35 36 37 38 39 40 41
000
FTUS41 KBOX 231120
TAFFMH
TAF
KFMH 231120Z 2312/2412 23012KT P6SM SCT008
      TEMPO 2312/2314 3SM BR OVC008
     FM231500 22016G24KT P6SM SCT250
     FM240100 22012KT 3SM BR BKN090
     FM240600 22008KT 2SM -SHRA BR BKN050=

USA.gov is the U.S. government's official web portal to all federal, state and local government web resources and services.